createdAt,value
2019-05-21T00:01:19.373Z,9.80
2019-05-21T00:06:06.279Z,9.70
2019-05-21T00:10:51.220Z,9.50
2019-05-21T00:15:35.991Z,9.60
2019-05-21T00:20:21.010Z,9.60
2019-05-21T00:25:05.944Z,9.50
2019-05-21T00:30:26.355Z,9.50
2019-05-21T00:35:49.855Z,9.60
2019-05-21T00:41:10.512Z,9.60
2019-05-21T00:45:55.983Z,9.80
2019-05-21T00:50:40.807Z,10.10
2019-05-21T00:55:25.697Z,10.30
2019-05-21T01:00:10.866Z,10.50
2019-05-21T01:05:00.704Z,10.70
2019-05-21T01:09:44.033Z,10.60
2019-05-21T01:14:28.772Z,10.50
2019-05-21T01:19:13.441Z,10.50
2019-05-21T01:23:58.363Z,10.60
2019-05-21T01:28:46.022Z,10.60
2019-05-21T01:33:30.679Z,10.60
2019-05-21T01:38:15.267Z,10.60
2019-05-21T01:43:03.065Z,10.60
2019-05-21T01:47:46.274Z,10.60
2019-05-21T01:52:30.971Z,10.60
2019-05-21T01:57:15.848Z,10.60
2019-05-21T02:02:00.974Z,10.50
2019-05-21T02:06:49.170Z,10.50
2019-05-21T02:11:35.527Z,10.60
2019-05-21T02:16:20.288Z,10.60
2019-05-21T02:21:04.834Z,10.70
2019-05-21T02:25:49.735Z,10.50
2019-05-21T02:30:34.561Z,10.40
2019-05-21T02:35:19.209Z,10.40
2019-05-21T02:40:05.502Z,10.30
2019-05-21T02:44:53.899Z,10.20
2019-05-21T02:49:37.494Z,10.20
2019-05-21T02:54:39.209Z,10.00
2019-05-21T02:59:08.869Z,9.90
2019-05-21T03:03:53.726Z,9.80
2019-05-21T03:08:41.768Z,10.00
2019-05-21T03:13:27.882Z,10.10
2019-05-21T03:18:12.591Z,10.10
2019-05-21T03:22:57.396Z,10.10
2019-05-21T03:27:43.970Z,10.10
2019-05-21T03:32:37.686Z,9.90
2019-05-21T03:37:25.496Z,10.10
2019-05-21T03:42:12.062Z,10.20
2019-05-21T03:46:57.062Z,10.40
2019-05-21T03:51:41.705Z,11.10
2019-05-21T03:56:26.592Z,12.10
2019-05-21T04:01:11.330Z,12.60
2019-05-21T04:05:56.615Z,12.50
2019-05-21T04:10:43.050Z,12.10
2019-05-21T04:15:29.280Z,11.70
2019-05-21T04:20:13.899Z,11.50
2019-05-21T04:24:58.890Z,11.50
2019-05-21T04:29:46.294Z,11.50
2019-05-21T04:34:30.900Z,11.60
2019-05-21T04:39:16.817Z,11.70
2019-05-21T04:44:01.426Z,11.90
2019-05-21T04:48:46.176Z,12.00
2019-05-21T04:53:30.893Z,12.10
2019-05-21T04:58:18.477Z,12.30
2019-05-21T05:03:06.465Z,12.40
2019-05-21T05:07:53.447Z,12.60
2019-05-21T05:12:38.023Z,12.70
2019-05-21T05:17:24.345Z,12.90
2019-05-21T05:22:08.790Z,13.00
2019-05-21T05:26:58.067Z,13.20
2019-05-21T05:31:42.717Z,13.50
2019-05-21T05:36:32.104Z,13.70
2019-05-21T05:41:16.778Z,13.90
2019-05-21T05:46:04.516Z,14.20
2019-05-21T05:50:51.002Z,14.40
2019-05-21T05:55:35.669Z,14.60
2019-05-21T06:00:21.195Z,14.90
2019-05-21T06:05:06.328Z,15.00
2019-05-21T06:09:51.713Z,15.00
2019-05-21T06:14:36.375Z,15.30
2019-05-21T06:19:21.875Z,15.60
2019-05-21T06:24:06.786Z,15.80
2019-05-21T06:28:55.847Z,16.00
2019-05-21T06:33:40.847Z,16.20
2019-05-21T06:38:26.139Z,16.30
2019-05-21T06:43:12.097Z,16.40
2019-05-21T06:47:56.844Z,16.90
2019-05-21T06:52:44.331Z,17.00
2019-05-21T06:57:29.311Z,17.50
2019-05-21T07:02:14.117Z,17.80
2019-05-21T07:06:58.999Z,17.80
2019-05-21T07:11:46.620Z,17.80
2019-05-21T07:16:31.676Z,17.80
2019-05-21T07:21:16.296Z,17.70
2019-05-21T07:26:00.980Z,18.10
2019-05-21T07:30:45.827Z,18.80
2019-05-21T07:35:30.678Z,18.80
2019-05-21T07:40:15.663Z,19.50
2019-05-21T07:45:00.386Z,20.00
2019-05-21T07:49:45.115Z,19.80
2019-05-21T07:54:29.827Z,20.20
2019-05-21T07:59:14.561Z,20.70
2019-05-21T08:03:59.382Z,21.10
2019-05-21T08:08:44.351Z,21.50
2019-05-21T08:13:29.171Z,21.70
2019-05-21T08:18:13.837Z,22.30
2019-05-21T08:22:58.623Z,22.90
2019-05-21T08:27:45.213Z,23.20
2019-05-21T08:32:29.948Z,22.70
2019-05-21T08:37:14.638Z,23.30
2019-05-21T08:41:59.482Z,23.40
2019-05-21T08:46:44.286Z,23.10
2019-05-21T08:51:29.010Z,23.30
2019-05-21T08:56:13.837Z,23.50
2019-05-21T09:00:58.701Z,23.10
2019-05-21T09:05:45.341Z,23.30
2019-05-21T09:10:30.222Z,23.80
2019-05-21T09:15:15.460Z,23.50
2019-05-21T09:20:00.321Z,23.80
2019-05-21T09:24:45.290Z,23.80
2019-05-21T09:29:30.018Z,23.70
2019-05-21T09:34:15.037Z,24.10
2019-05-21T09:38:59.982Z,23.30
2019-05-21T09:43:44.605Z,23.40
2019-05-21T09:48:29.727Z,24.00
2019-05-21T09:53:14.562Z,24.30
2019-05-21T09:58:09.812Z,24.40
2019-05-21T10:02:54.425Z,24.60
2019-05-21T10:07:40.691Z,24.90
2019-05-21T10:12:25.729Z,25.30
2019-05-21T10:17:11.478Z,25.80
2019-05-21T10:21:57.067Z,26.50
2019-05-21T10:26:42.145Z,26.70
2019-05-21T10:31:26.716Z,27.70
2019-05-21T10:36:15.515Z,27.80
2019-05-21T10:41:01.959Z,27.00
2019-05-21T10:45:46.950Z,26.10
2019-05-21T10:50:31.843Z,26.90
2019-05-21T10:55:17.643Z,27.80
2019-05-21T11:00:06.062Z,27.50
2019-05-21T11:05:00.905Z,27.30
2019-05-21T11:09:45.802Z,27.20
2019-05-21T11:14:30.955Z,27.10
2019-05-21T11:19:15.871Z,27.10
2019-05-21T11:24:00.598Z,27.80
2019-05-21T11:28:45.319Z,28.10
2019-05-21T11:33:30.046Z,28.00
2019-05-21T11:38:17.172Z,28.20
2019-05-21T11:43:01.720Z,28.80
2019-05-21T11:47:46.461Z,28.70
2019-05-21T11:52:31.239Z,28.20
2019-05-21T11:57:15.817Z,28.40
2019-05-21T12:02:00.576Z,28.60
2019-05-21T12:06:45.787Z,29.10
2019-05-21T12:11:30.424Z,29.40
2019-05-21T12:16:15.040Z,29.90
2019-05-21T12:21:00.582Z,30.10
2019-05-21T12:25:45.395Z,30.80
2019-05-21T12:30:32.720Z,31.00
2019-05-21T12:35:20.650Z,30.80
2019-05-21T12:40:06.229Z,30.70
2019-05-21T12:44:50.954Z,29.90
2019-05-21T12:49:35.554Z,29.90
2019-05-21T12:54:25.866Z,30.50
2019-05-21T12:59:10.503Z,30.80
2019-05-21T13:03:56.435Z,30.30
2019-05-21T13:08:42.656Z,29.20
2019-05-21T13:13:27.640Z,28.80
2019-05-21T13:18:13.649Z,28.90
2019-05-21T13:22:58.685Z,28.20
2019-05-21T13:27:43.366Z,27.10
2019-05-21T13:32:28.336Z,26.10
2019-05-21T13:37:13.428Z,25.40
2019-05-21T13:41:58.036Z,25.30
2019-05-21T13:46:48.168Z,25.40
2019-05-21T13:51:30.246Z,26.40
2019-05-21T13:56:15.102Z,27.20
2019-05-21T14:01:00.414Z,27.30
2019-05-21T14:05:45.354Z,27.20
2019-05-21T14:10:34.678Z,27.60
2019-05-21T14:15:19.468Z,27.90
2019-05-21T14:20:10.761Z,27.10
2019-05-21T14:24:58.530Z,26.90
2019-05-21T14:29:46.199Z,26.70
2019-05-21T14:34:35.886Z,26.20
2019-05-21T14:39:22.381Z,25.70
2019-05-21T14:44:11.586Z,25.40
2019-05-21T14:48:56.739Z,24.90
2019-05-21T14:53:43.462Z,24.80
2019-05-21T14:58:32.476Z,24.60
2019-05-21T15:03:25.156Z,24.40
2019-05-21T15:08:09.080Z,25.00
2019-05-21T15:13:11.359Z,25.10
2019-05-21T15:17:59.182Z,25.10
2019-05-21T15:22:44.633Z,24.60
2019-05-21T15:27:32.272Z,24.40
2019-05-21T15:32:17.053Z,24.10
2019-05-21T15:37:04.928Z,23.80
2019-05-21T15:41:49.823Z,24.10
2019-05-21T15:46:47.876Z,25.10
2019-05-21T15:51:23.811Z,25.80
2019-05-21T15:56:18.360Z,26.30
2019-05-21T16:01:05.964Z,26.60
2019-05-21T16:06:12.273Z,26.40
2019-05-21T16:11:27.275Z,25.10
2019-05-21T16:15:58.332Z,24.50
2019-05-21T16:20:45.722Z,24.00
2019-05-21T16:26:16.451Z,23.70
2019-05-21T16:30:30.144Z,23.10
2019-05-21T16:35:15.470Z,23.20
2019-05-21T16:40:01.529Z,23.10
2019-05-21T16:44:46.359Z,24.00
2019-05-21T16:49:31.265Z,25.70
2019-05-21T16:54:15.975Z,27.10
2019-05-21T16:59:01.162Z,28.00
2019-05-21T17:03:59.053Z,27.80
2019-05-21T17:08:34.160Z,27.80
2019-05-21T17:13:19.156Z,27.60
2019-05-21T17:18:04.065Z,27.40
2019-05-21T17:22:52.151Z,26.80
2019-05-21T17:27:42.102Z,26.50
2019-05-21T17:32:28.484Z,26.10
2019-05-21T17:37:18.353Z,24.70
2019-05-21T17:42:30.344Z,23.50
2019-05-21T17:52:33.523Z,22.00
2019-05-21T17:57:38.160Z,21.30
2019-05-21T18:02:28.390Z,20.90
2019-05-21T18:07:14.208Z,20.50
2019-05-21T18:11:59.356Z,20.20
2019-05-21T18:16:44.545Z,19.80
2019-05-21T18:21:35.694Z,19.50
2019-05-21T18:26:34.160Z,19.30
2019-05-21T18:31:36.141Z,19.00
2019-05-21T18:36:17.060Z,18.70
2019-05-21T18:41:07.013Z,18.50
2019-05-21T18:45:54.939Z,18.30
2019-05-21T18:50:40.172Z,18.10
2019-05-21T18:55:25.415Z,18.10
2019-05-21T19:00:11.260Z,17.90
2019-05-21T19:05:04.985Z,17.80
2019-05-21T19:09:50.223Z,17.70
2019-05-21T19:14:35.060Z,17.60
2019-05-21T19:19:20.180Z,17.40
2019-05-21T19:24:05.010Z,17.40
2019-05-21T19:29:25.679Z,17.30
2019-05-21T19:34:14.344Z,17.10
2019-05-21T19:38:58.964Z,17.00
2019-05-21T19:44:05.451Z,16.90
2019-05-21T19:48:53.577Z,16.80
2019-05-21T19:53:52.236Z,16.70
2019-05-21T19:58:37.109Z,16.50
2019-05-21T20:03:22.436Z,16.30
2019-05-21T20:08:11.017Z,16.10
2019-05-21T20:13:31.794Z,16.00
2019-05-21T20:19:18.622Z,15.90
2019-05-21T20:23:08.289Z,15.90
2019-05-21T20:28:01.366Z,15.90
2019-05-21T20:32:58.663Z,15.80
2019-05-21T20:37:46.994Z,15.80
2019-05-21T20:42:59.372Z,15.70
2019-05-21T20:47:44.635Z,15.80
2019-05-21T20:52:23.133Z,15.80
2019-05-21T20:57:14.101Z,15.70
2019-05-21T21:02:00.444Z,15.70
2019-05-21T21:06:45.697Z,15.70
2019-05-21T21:11:31.619Z,15.70
2019-05-21T21:16:16.845Z,15.70
2019-05-21T21:21:02.142Z,15.60
2019-05-21T21:25:48.016Z,15.60
2019-05-21T21:30:35.584Z,15.50
2019-05-21T21:35:21.438Z,15.40
2019-05-21T21:40:07.641Z,15.30
2019-05-21T21:44:56.763Z,15.20
2019-05-21T21:49:43.161Z,15.10
2019-05-21T21:54:31.295Z,15.00
2019-05-21T21:59:16.261Z,15.00
2019-05-21T22:04:06.340Z,14.90
2019-05-21T22:08:54.250Z,15.00
2019-05-21T22:13:39.749Z,14.80
2019-05-21T22:18:26.406Z,14.70
2019-05-21T22:23:12.970Z,14.60
2019-05-21T22:27:57.840Z,14.50
2019-05-21T22:32:44.940Z,14.50
2019-05-21T22:37:30.377Z,14.40
2019-05-21T22:42:17.326Z,14.30
2019-05-21T22:47:03.196Z,14.30
2019-05-21T22:51:48.417Z,14.30
2019-05-21T22:56:33.604Z,14.30
2019-05-21T23:01:22.445Z,14.30
2019-05-21T23:06:09.116Z,14.20
2019-05-21T23:10:54.352Z,14.20
2019-05-21T23:15:49.635Z,14.10
2019-05-21T23:20:36.093Z,14.10
2019-05-21T23:25:22.470Z,14.10
2019-05-21T23:30:12.941Z,14.10
2019-05-21T23:34:59.839Z,14.00
2019-05-21T23:39:46.139Z,14.00
2019-05-21T23:44:31.554Z,14.00
2019-05-21T23:49:16.813Z,13.90
2019-05-21T23:54:02.129Z,14.00
2019-05-21T23:58:48.135Z,13.90
